Terminal Aerodrome Forecast
Issued by NWS Corpus Christi, TX

Home | Current Version | Previous Version | Text Only | Print | Product List | Glossary On
Versions: 1 2 3 4 5 6 7 8 9 10 11 12
017
FTUS44 KCRP 230526
TAFVCT
TAF
KVCT 230526Z 2306/2406 16010KT P6SM FEW015
     FM231500 17015G21KT P6SM SCT035
     FM240200 15009KT P6SM SCT020=

USA.gov is the U.S. government's official web portal to all federal, state and local government web resources and services.